Etusivu
METAR-TAF:

METAR-TAF

Lentoasemat :

Cairns, Australia

Leveyspiiri: 16-53S, Pituuspiiri: 145-45E, korkeus merenpinnasta: 3 m

Tämänhetkinen sää

Tämä raportti tehtiin 33 minuuttia sitten, kello 23.30 UTC
Tuuli 12 kn kaakosta
Lämpötila 30°C
Kosteus 52%
Ilmanpaine 1016 hPa
Näkyvyys 10 km tai enemmän
Hajanaisia pilviä 3500 ft:n korkeudessa

METAR: YBCS 182330Z 14012KT 9999 SCT035 30/19 Q1016 NOSIG

Aika: 10:03 (00:03 UTC)

Sääennuste

Tämä raportti tehtiin 52 minuuttia sitten, kello 23.11 UTC
Ennuste voimassa 19. päivästä klo 00 UTC - 19. päivään klo 24 UTC
Tuuli 14 kn idästä/kaakosta
Näkyvyys 10 km tai enemmän
Hajanaisia pilviä 3500 ft:n korkeudessa
From 19. päivästä klo 0900 UTC
Tuuli 7 kn kaakosta
Näkyvyys 10 km tai enemmän
Muutamia pilviä 2000 ft:n korkeudessa
Hajonneita pilviä 3500 ft:n korkeudessa

TAF: YBCS 182311Z 1900/1924 11014KT 9999 SCT035 FM190900 13007KT 9999 FEW020 BKN035

Säähavainnot ja -ennusteet yli 4000 lentoasemalta (METAR- ja TAF-raportit).

Käytössä olevat sääasemat on merkitty karttaan keltaisilla ja punaisilla pisteillä.

Aseta hiiri pisteen päälle nähdäksesi sääaseman nimen.

Klikkaa sitten nähdäksesi säähavainnot ja -ennusteet.

Kartan vaihtaminen: klikkaa mustalla rastilla varustettuja vihreitä pisteitä, niin voit zoomata sisään; viivalla varustettua vihreää pistettä, niin voit zoomata ulos tai vihreitä nuolia, niin pääset viereisille kartoille.


METAR-TAF: